Main page
METAR-TAF:

METAR-TAF

Airports :

Phitsanulok Airport

Phitsanulok, Thailand

latitude: 16-46-23N, longitude: 100-16-56E, elevation: 47 m

Current weather observation

The report was made 4 hours and 26 minutes ago, at 14:00 UTC
Wind 2 kt from variable directions
Temperature 25°C
Humidity 65%
Pressure 1011 hPa
Visibility: 5000 m
mist

METAR: VTPP 271400Z VRB02KT 5000 BR NSC 25/18 Q1011 NOSIG

Time: 01:26 (18:26 UTC)

Forecast

The report was made 1 hour and 26 minutes ago, at 17:00 UTC
Forecast valid from 27 at 18 UTC to 28 at 18 UTC
Wind 5 kt from the South/Southwest
Visibility: 6000 m
Few clouds at a height of 2500 ft

TAF: VTPP 271700Z 2718/2818 20005KT 6000 FEW025

Weather observations and forecasts of more than 4000 airports (METAR and TAF reports).

The available stations are represented by yellow and red dots on the map.

Hover mouse over dot to see the name of the station.

Then click to see weather observations and forecasts.

To change the map : click on the green buttons with a black cross to zoom in, on the green button with a dash to zoom out, or on the green arrows for adjacent maps.


METAR-TAF: